Time;durP1;ratioP1;P1;durP2;ratioP2;P2;SDS_P1;SDS_P2;PMS_P1;PMS_P2;Temp;Humidity;BMP_temperature;BMP_pressure;BME280_temperature;BME280_humidity;BME280_pressure;Samples;Min_cycle;Max_cycle;Signal;HPM_P1;HPM_P2
2022/05/20 00:03:24;;;;;;;28.05;25.02;;;;;;;14.93;65.18;101123.78;10287303;28;20190;-83
2022/05/20 00:08:27;;;;;;;29.83;24.50;;;;;;;15.10;65.94;101132.16;10271418;28;20454;-84
2022/05/20 00:13:30;;;;;;;22.70;19.55;;;;;;;14.80;64.68;101132.22;10286914;28;20207;-82
2022/05/20 00:18:32;;;;;;;26.00;21.27;;;;;;;14.60;64.13;101127.31;10302349;28;20286;-84
2022/05/20 00:23:35;;;;;;;25.55;22.17;;;;;;;15.13;64.11;101111.56;10303553;28;20210;-82
2022/05/20 00:28:38;;;;;;;28.55;23.38;;;;;;;14.99;65.33;101114.69;10270829;28;20186;-82
2022/05/20 00:33:40;;;;;;;30.25;22.33;;;;;;;14.76;66.17;101111.38;10269392;28;20234;-82
2022/05/20 00:38:42;;;;;;;27.47;22.53;;;;;;;14.56;66.63;101119.84;10285592;28;20675;-84
2022/05/20 00:43:47;;;;;;;27.23;23.40;;;;;;;14.46;67.76;101121.06;10285222;28;20683;-83
2022/05/20 00:48:59;;;;;;;30.90;23.60;;;;;;;14.43;68.23;101133.13;10285191;28;20198;-84
2022/05/20 00:54:38;;;;;;;28.90;24.35;;;;;;;14.39;68.69;101124.47;10285525;28;20237;-82
2022/05/20 00:59:43;;;;;;;29.93;24.10;;;;;;;14.51;68.21;101115.22;10155392;28;20206;-83
2022/05/20 01:04:45;;;;;;;32.83;25.15;;;;;;;14.21;69.03;101130.56;10268787;28;20547;-83
2022/05/20 01:09:47;;;;;;;33.63;26.10;;;;;;;13.77;71.66;101127.06;10285052;28;20261;-82
2022/05/20 01:14:50;;;;;;;29.70;25.23;;;;;;;14.02;70.29;101129.00;10284309;28;20686;-83
2022/05/20 01:19:54;;;;;;;33.97;28.00;;;;;;;13.94;71.10;101126.16;10285320;28;20267;-82
2022/05/20 01:24:56;;;;;;;35.53;27.42;;;;;;;13.55;71.62;101130.91;10301965;28;20210;-82
2022/05/20 01:29:58;;;;;;;38.23;27.57;;;;;;;13.97;70.01;101137.63;10267635;28;20662;-82
2022/05/20 01:35:02;;;;;;;34.15;25.35;;;;;;;13.90;70.45;101130.84;10277844;28;20227;-83
2022/05/20 01:40:07;;;;;;;33.67;27.10;;;;;;;14.01;69.77;101121.66;10299803;28;20199;-82
2022/05/20 01:45:21;;;;;;;33.83;27.67;;;;;;;13.82;71.38;101124.00;10300394;28;20241;-84
2022/05/20 01:50:34;;;;;;;35.25;28.05;;;;;;;14.29;69.10;101121.19;10299415;28;20187;-83
2022/05/20 01:55:57;;;;;;;33.33;27.02;;;;;;;13.80;71.57;101112.22;10284642;28;20373;-82
2022/05/20 02:01:03;;;;;;;38.50;28.60;;;;;;;13.88;71.53;101111.34;10284402;28;20194;-84
2022/05/20 02:06:15;;;;;;;37.17;29.02;;;;;;;13.78;71.37;101116.56;10282986;28;20251;-82
2022/05/20 02:11:25;;;;;;;40.27;29.37;;;;;;;13.99;70.98;101106.16;10299677;28;20534;-82
2022/05/20 02:16:30;;;;;;;38.23;29.90;;;;;;;14.20;69.14;101100.56;10296685;28;20281;-83
2022/05/20 02:21:36;;;;;;;39.97;31.23;;;;;;;14.04;69.18;101081.28;10282293;28;20214;-83
2022/05/20 02:26:47;;;;;;;38.87;31.37;;;;;;;13.78;70.89;101083.38;10282052;28;20182;-84
2022/05/20 02:31:56;;;;;;;42.28;31.40;;;;;;;14.00;70.21;101091.63;10266030;28;20635;-82
2022/05/20 02:36:58;;;;;;;41.20;32.03;;;;;;;13.94;70.37;101098.63;10265054;28;20218;-83
2022/05/20 02:42:00;;;;;;;37.87;30.10;;;;;;;14.00;69.68;101085.13;10281342;28;20245;-84
2022/05/20 02:47:03;;;;;;;38.37;30.90;;;;;;;14.23;69.03;101071.50;10281143;28;20206;-82
2022/05/20 02:52:07;;;;;;;41.50;31.23;;;;;;;13.94;69.62;101078.78;10281245;28;20252;-83
2022/05/20 02:57:09;;;;;;;43.13;30.63;;;;;;;14.07;69.06;101072.09;10280044;28;20226;-84
2022/05/20 03:07:32;;;;;;;38.83;29.97;;;;;;;13.81;69.68;101087.53;10336296;28;20197;-82
2022/05/20 03:12:38;;;;;;;37.93;31.17;;;;;;;13.32;72.41;101087.84;10378217;28;20185;-83
2022/05/20 03:17:41;;;;;;;40.20;30.15;;;;;;;13.21;73.19;101089.34;10360837;28;20279;-82
2022/05/20 03:22:43;;;;;;;40.57;31.37;;;;;;;13.72;71.06;101093.22;10376778;28;20255;-82
2022/05/20 03:27:45;;;;;;;42.75;31.42;;;;;;;13.30;73.52;101095.00;10376686;28;20230;-84
2022/05/20 03:32:47;;;;;;;38.67;30.43;;;;;;;13.36;72.77;101093.66;10359853;28;20233;-81
2022/05/20 03:37:50;;;;;;;44.30;32.90;;;;;;;13.33;73.29;101097.16;10376452;28;20263;-82
2022/05/20 03:42:52;;;;;;;41.67;31.10;;;;;;;13.29;73.30;101082.03;10376514;28;20582;-84
2022/05/20 03:47:54;;;;;;;39.97;31.50;;;;;;;13.40;72.25;101083.34;10376352;28;20529;-82
2022/05/20 03:52:56;;;;;;;41.97;32.30;;;;;;;13.70;71.82;101078.56;10359652;28;20251;-82
2022/05/20 03:57:58;;;;;;;40.77;30.40;;;;;;;13.43;73.23;101073.31;10376116;28;20794;-84
2022/05/20 04:03:01;;;;;;;41.30;29.37;;;;;;;13.78;71.65;101082.56;10343385;28;20267;-82
2022/05/20 04:08:03;;;;;;;39.10;29.63;;;;;;;13.51;71.88;101078.13;10343555;28;20243;-85
2022/05/20 04:13:06;;;;;;;39.83;31.13;;;;;;;13.97;70.02;101075.28;10293368;28;20210;-84
2022/05/20 04:18:08;;;;;;;43.53;31.93;;;;;;;13.66;71.08;101080.44;10305821;28;20492;-84
2022/05/20 04:23:10;;;;;;;38.60;29.73;;;;;;;13.64;71.64;101094.09;10335839;28;20475;-82
2022/05/20 04:28:12;;;;;;;39.93;31.53;;;;;;;13.53;72.38;101090.81;10262604;28;20199;-88
2022/05/20 04:33:15;;;;;;;43.37;31.67;;;;;;;13.45;72.76;101085.97;10278507;28;20215;-82
2022/05/20 04:38:17;;;;;;;42.30;31.33;;;;;;;14.12;70.82;101084.41;10295948;28;20218;-86
2022/05/20 04:48:44;;;;;;;41.50;32.10;;;;;;;13.99;71.38;101106.16;10325088;28;20185;-83
2022/05/20 04:59:06;;;;;;;49.37;32.83;;;;;;;14.09;71.32;101092.41;10324717;28;20566;-83
2022/05/20 05:04:09;;;;;;;47.42;32.15;;;;;;;14.50;70.28;101085.19;10342067;28;20520;-83
2022/05/20 05:09:11;;;;;;;42.60;30.43;;;;;;;14.25;71.35;101089.00;10301380;28;20582;-83
2022/05/20 05:14:14;;;;;;;40.78;30.35;;;;;;;14.21;71.76;101082.34;10284223;28;20242;-80
2022/05/20 05:19:17;;;;;;;38.95;30.30;;;;;;;14.31;69.96;101090.50;10300314;28;20548;-80
2022/05/20 05:24:19;;;;;;;38.03;29.07;;;;;;;14.08;70.77;101090.75;10283992;28;20458;-81
2022/05/20 05:29:21;;;;;;;39.33;28.77;;;;;;;14.10;71.24;101079.91;10283794;28;20191;-80
2022/05/20 05:34:23;;;;;;;40.65;30.65;;;;;;;13.90;71.89;101069.31;10282898;28;20230;-81
2022/05/20 05:39:25;;;;;;;38.33;29.70;;;;;;;14.03;70.39;101061.78;10283607;28;20190;-81
2022/05/20 05:44:27;;;;;;;48.00;36.20;;;;;;;13.79;71.53;101050.22;10283529;28;20182;-81
2022/05/20 05:49:29;;;;;;;53.45;36.55;;;;;;;14.27;69.25;101055.47;10283108;28;20675;-80
2022/05/20 05:54:32;;;;;;;52.45;35.63;;;;;;;14.23;70.52;101046.81;10299824;28;20195;-82
2022/05/20 05:59:40;;;;;;;47.67;35.33;;;;;;;15.09;68.28;101031.97;10299922;28;20186;-81
2022/05/20 06:04:43;;;;;;;53.77;38.50;;;;;;;14.52;69.02;101028.94;10283009;28;20210;-81
2022/05/20 06:09:45;;;;;;;45.90;36.70;;;;;;;14.65;67.95;101024.97;10283035;28;20187;-81
2022/05/20 06:14:48;;;;;;;51.33;38.37;;;;;;;14.40;69.75;101014.69;10266131;28;20547;-82
2022/05/20 06:19:50;;;;;;;51.55;37.35;;;;;;;14.53;69.55;101024.91;10298987;28;20210;-82
2022/05/20 06:24:52;;;;;;;48.28;36.95;;;;;;;14.75;68.47;101018.88;10282121;28;20575;-82
2022/05/20 06:29:55;;;;;;;52.53;39.63;;;;;;;14.82;68.82;101015.53;10281732;28;20194;-82
2022/05/20 06:40:21;;;;;;;56.65;38.65;;;;;;;15.02;65.81;101013.81;10245085;29;20244;-81
2022/05/20 06:45:23;;;;;;;50.38;38.92;;;;;;;14.95;68.78;101008.72;10244481;29;20761;-82
2022/05/20 06:50:25;;;;;;;39.92;32.00;;;;;;;15.01;66.71;101006.47;10241405;29;20397;-82
2022/05/20 06:55:28;;;;;;;35.78;29.85;;;;;;;14.77;65.38;101010.88;10257771;29;20215;-83
2022/05/20 07:00:30;;;;;;;35.67;29.25;;;;;;;15.05;63.16;101004.59;10241062;29;20253;-82
2022/05/20 07:05:34;;;;;;;38.78;31.63;;;;;;;15.17;64.07;100996.94;10256096;28;20196;-82
2022/05/20 07:10:36;;;;;;;39.63;32.20;;;;;;;15.49;63.40;100998.09;10241045;29;20588;-82
2022/05/20 07:15:38;;;;;;;37.50;30.33;;;;;;;15.71;61.00;100984.63;10257202;29;20258;-81
2022/05/20 07:20:41;;;;;;;37.80;29.20;;;;;;;15.83;61.31;100981.78;10240169;29;20211;-80
2022/05/20 07:25:44;;;;;;;38.47;30.02;;;;;;;16.18;61.18;100980.06;10240271;29;20323;-82
2022/05/20 07:30:46;;;;;;;37.28;27.48;;;;;;;15.99;58.97;100985.56;10224607;29;20211;-82
2022/05/20 07:35:49;;;;;;;25.48;21.30;;;;;;;16.66;57.37;100986.03;10224064;29;20490;-82
2022/05/20 07:40:53;;;;;;;34.97;27.60;;;;;;;16.43;59.06;100978.03;10239896;29;20191;-81
2022/05/20 07:45:55;;;;;;;33.80;24.02;;;;;;;16.54;56.99;100978.34;10224266;29;20187;-82
2022/05/20 07:51:06;;;;;;;29.52;24.15;;;;;;;16.45;58.17;100961.44;10223479;29;20659;-83
2022/05/20 07:56:21;;;;;;;28.48;21.42;;;;;;;16.69;56.69;100946.28;10239418;29;20210;-83
2022/05/20 08:01:28;;;;;;;27.00;21.10;;;;;;;16.97;56.17;100946.28;10239704;29;20191;-81
2022/05/20 08:06:31;;;;;;;30.17;23.27;;;;;;;17.30;56.57;100920.31;10239609;29;20219;-82
2022/05/20 08:11:33;;;;;;;29.63;23.10;;;;;;;16.98;56.10;100893.84;10239287;29;20493;-82
2022/05/20 08:16:35;;;;;;;29.75;23.23;;;;;;;17.19;55.40;100893.56;10260457;28;20215;-81
2022/05/20 08:21:38;;;;;;;33.53;23.75;;;;;;;17.75;55.04;100887.66;10231139;29;20282;-82
2022/05/20 08:26:40;;;;;;;31.05;24.90;;;;;;;17.90;54.46;100881.09;10246655;29;20187;-82
2022/05/20 08:31:43;;;;;;;31.17;24.88;;;;;;;17.14;56.66;100876.75;10237683;28;20620;-83
2022/05/20 08:36:45;;;;;;;29.83;23.63;;;;;;;17.89;56.08;100890.84;10269909;28;20289;-82
2022/05/20 08:41:50;;;;;;;29.02;23.30;;;;;;;17.54;55.81;100880.22;10303058;28;20225;-82
2022/05/20 08:47:08;;;;;;;29.83;21.55;;;;;;;18.07;54.36;100874.97;10269988;28;20241;-82
2022/05/20 08:52:11;;;;;;;29.10;22.83;;;;;;;17.68;56.13;100873.25;10284992;28;20195;-82
2022/05/20 08:57:29;;;;;;;28.83;21.58;;;;;;;17.91;55.67;100868.47;10284651;28;20302;-81
2022/05/20 09:02:32;;;;;;;27.92;22.25;;;;;;;18.03;55.61;100861.81;10285441;28;20190;-83
2022/05/20 09:08:03;;;;;;;28.52;22.30;;;;;;;17.77;53.92;100854.72;10284741;28;20595;-82
2022/05/20 09:13:18;;;;;;;26.90;20.45;;;;;;;17.99;54.55;100861.72;10268810;28;20199;-86
2022/05/20 09:18:33;;;;;;;28.33;20.83;;;;;;;17.69;55.87;100858.63;10301047;28;20289;-83
2022/05/20 09:23:51;;;;;;;28.08;21.85;;;;;;;17.80;54.70;100836.88;10284469;28;20199;-86
2022/05/20 09:29:16;;;;;;;29.20;22.77;;;;;;;17.22;56.85;100827.31;10300256;28;20234;-85
2022/05/20 09:34:39;;;;;;;30.58;21.45;;;;;;;18.25;53.32;100813.38;10300171;28;20293;-85
2022/05/20 09:39:44;;;;;;;30.15;21.58;;;;;;;18.49;53.12;100814.28;10283462;28;20254;-87
2022/05/20 09:44:49;;;;;;;31.13;22.70;;;;;;;18.64;53.03;100802.75;10267904;28;20264;-86
2022/05/20 09:49:55;;;;;;;30.48;23.20;;;;;;;18.92;53.23;100796.72;10283311;28;20198;-84
2022/05/20 09:55:01;;;;;;;33.35;23.05;;;;;;;19.25;51.40;100790.38;10283380;28;20588;-82
2022/05/20 10:00:18;;;;;;;32.75;23.27;;;;;;;18.44;53.48;100794.63;10300136;28;20211;-82
2022/05/20 10:05:50;;;;;;;33.25;23.85;;;;;;;18.95;53.07;100778.84;10299840;28;20217;-82
2022/05/20 10:10:59;;;;;;;30.48;22.50;;;;;;;18.78;54.56;100762.19;10290343;28;20488;-85
2022/05/20 10:16:36;;;;;;;35.15;23.02;;;;;;;19.44;53.26;100749.41;10298553;28;20203;-82
2022/05/20 10:21:44;;;;;;;31.13;22.33;;;;;;;19.48;53.56;100732.31;10283297;28;20227;-82
2022/05/20 10:26:55;;;;;;;29.58;22.23;;;;;;;19.85;52.47;100706.66;10282086;28;20178;-82
2022/05/20 10:37:47;;;;;;;30.85;23.60;;;;;;;19.31;56.78;100693.69;10283582;28;20214;-86
2022/05/20 10:43:04;;;;;;;33.92;23.73;;;;;;;19.82;52.85;100679.66;10298471;28;20199;-84
2022/05/20 10:48:35;;;;;;;31.15;22.25;;;;;;;19.65;54.43;100666.00;10281488;28;20187;-85
2022/05/20 10:53:52;;;;;;;32.00;23.58;;;;;;;20.72;52.55;100653.56;10283598;28;20467;-87
2022/05/20 10:59:05;;;;;;;27.63;22.63;;;;;;;19.92;52.90;100649.53;10283164;28;20253;-82
2022/05/20 11:04:28;;;;;;;33.28;25.73;;;;;;;20.18;53.56;100615.06;10290917;28;20229;-85
2022/05/20 11:09:30;;;;;;;30.83;22.38;;;;;;;20.68;51.75;100589.72;10316060;28;20201;-85
2022/05/20 11:15:00;;;;;;;32.00;23.92;;;;;;;20.78;53.33;100566.03;10313616;28;20256;-85
2022/05/20 11:20:20;;;;;;;35.05;23.90;;;;;;;20.25;53.78;100555.03;10331649;28;20226;-82
2022/05/20 11:25:49;;;;;;;28.40;22.63;;;;;;;20.58;53.02;100527.44;10359357;28;20252;-83
2022/05/20 11:31:21;;;;;;;29.25;21.58;;;;;;;21.33;53.84;100505.72;10330642;28;20198;-84
2022/05/20 11:36:43;;;;;;;29.38;22.08;;;;;;;21.59;51.75;100491.06;10322689;28;20243;-82
2022/05/20 11:42:04;;;;;;;30.17;24.02;;;;;;;21.22;52.33;100499.09;10318170;28;20610;-83
2022/05/20 11:47:25;;;;;;;31.13;24.48;;;;;;;21.17;55.75;100486.00;10319412;28;20591;-83
2022/05/20 11:52:42;;;;;;;30.60;24.23;;;;;;;21.65;52.76;100466.47;10322664;28;20207;-84
2022/05/20 11:57:53;;;;;;;31.23;24.67;;;;;;;21.78;53.13;100450.47;10283278;28;20205;-83
2022/05/20 12:02:59;;;;;;;31.27;24.33;;;;;;;21.93;52.97;100427.50;10314514;28;20224;-82
2022/05/20 12:08:02;;;;;;;26.70;21.63;;;;;;;22.28;50.91;100412.28;10304563;28;20193;-82
2022/05/20 12:13:20;;;;;;;32.65;25.55;;;;;;;21.51;53.21;100397.63;10327416;28;20198;-83
2022/05/20 12:24:12;;;;;;;30.33;25.35;;;;;;;22.67;51.53;100367.03;10311117;28;20210;-85
2022/05/20 12:29:37;;;;;;;29.00;23.05;;;;;;;22.85;52.87;100332.47;10291811;28;20233;-86
2022/05/20 12:34:41;;;;;;;34.50;26.23;;;;;;;23.13;49.47;100302.72;10326337;28;20270;-86
2022/05/20 12:39:51;;;;;;;35.08;27.17;;;;;;;22.55;50.87;100307.19;10301776;28;20246;-83
2022/05/20 12:44:54;;;;;;;37.17;27.73;;;;;;;21.91;53.86;100306.56;10303424;28;20206;-83
2022/05/20 12:50:03;;;;;;;38.30;27.42;;;;;;;21.58;55.14;100334.53;10302028;28;20552;-83
2022/05/20 12:55:24;;;;;;;33.90;27.58;;;;;;;21.62;54.69;100335.31;10345781;28;20264;-84
2022/05/20 13:00:32;;;;;;;35.55;26.48;;;;;;;21.73;55.50;100329.59;10317290;28;20253;-87
2022/05/20 13:05:38;;;;;;;38.97;30.05;;;;;;;21.78;56.13;100315.63;10301561;28;20665;-84
2022/05/20 13:10:41;;;;;;;33.95;26.92;;;;;;;21.26;57.67;100287.81;10321799;28;20223;-88
2022/05/20 13:16:05;;;;;;;37.55;28.60;;;;;;;21.44;56.71;100265.72;10298124;28;20202;-87
2022/05/20 13:21:15;;;;;;;41.58;29.98;;;;;;;21.02;57.99;100267.34;10330134;28;20319;-86
2022/05/20 13:26:30;;;;;;;39.08;30.92;;;;;;;20.97;59.61;100276.34;10313651;28;20257;-86
2022/05/20 13:31:32;;;;;;;39.40;31.30;;;;;;;20.83;60.32;100293.50;10294884;28;20229;-85
2022/05/20 13:36:46;;;;;;;45.55;35.10;;;;;;;21.00;61.51;100314.81;10321686;28;20225;-83
2022/05/20 13:41:49;;;;;;;55.13;40.83;;;;;;;20.36;66.56;100304.03;10326687;28;20201;-83
2022/05/20 13:52:31;;;;;;;34.08;23.52;;;;;;;18.92;75.19;100371.13;10314212;28;20257;-82
2022/05/20 13:57:40;;;;;;;18.60;15.75;;;;;;;18.26;79.18;100374.78;10296866;28;20257;-84
2022/05/20 14:02:51;;;;;;;10.57;8.68;;;;;;;18.60;74.88;100338.56;10311294;28;20206;-86
2022/05/20 14:07:59;;;;;;;14.85;8.77;;;;;;;18.99;74.07;100259.84;10306069;28;20216;-85
2022/05/20 14:13:08;;;;;;;13.25;8.13;;;;;;;19.40;73.02;100257.69;10348862;28;20197;-85
2022/05/20 14:18:28;;;;;;;7.82;5.88;;;;;;;19.74;69.88;100266.94;10327471;28;20300;-86
2022/05/20 14:23:37;;;;;;;9.05;7.57;;;;;;;20.67;69.19;100261.56;10311940;28;20487;-89
2022/05/20 14:28:46;;;;;;;11.70;7.50;;;;;;;20.56;67.09;100235.78;10309947;28;20194;-85
2022/05/20 14:33:52;;;;;;;9.50;6.97;;;;;;;20.31;69.55;100235.69;10338468;28;20233;-83
2022/05/20 14:38:57;;;;;;;7.90;7.10;;;;;;;20.67;70.54;100224.34;10346863;28;20253;-84
2022/05/20 14:44:05;;;;;;;7.75;6.78;;;;;;;20.36;69.80;100229.59;10298304;28;20206;-83
2022/05/20 14:49:11;;;;;;;11.70;7.82;;;;;;;20.64;71.39;100257.47;10315010;28;20264;-84
2022/05/20 14:54:15;;;;;;;6.28;4.50;;;;;;;19.75;69.07;100250.59;10296091;28;20249;-84
2022/05/20 14:59:34;;;;;;;5.53;5.03;;;;;;;19.72;69.19;100262.84;10300892;28;20257;-84
2022/05/20 15:04:37;;;;;;;7.55;5.65;;;;;;;20.15;69.82;100268.75;10330591;28;20229;-84
2022/05/20 15:09:39;;;;;;;6.90;6.20;;;;;;;20.39;69.71;100245.97;10299484;28;20225;-85
2022/05/20 15:14:41;;;;;;;7.07;5.72;;;;;;;19.90;69.96;100240.06;10278630;28;20598;-85
2022/05/20 15:19:47;;;;;;;3.88;3.35;;;;;;;19.43;68.00;100249.53;10325954;28;20287;-87
2022/05/20 15:24:49;;;;;;;5.28;3.15;;;;;;;18.12;71.11;100271.91;10292900;28;20201;-85
2022/05/20 15:29:52;;;;;;;5.20;2.80;;;;;;;18.74;69.12;100260.81;10308864;28;20587;-85
2022/05/20 15:34:54;;;;;;;4.50;3.05;;;;;;;18.20;70.69;100245.97;10294692;28;20284;-85
2022/05/20 15:40:01;;;;;;;4.22;2.90;;;;;;;19.05;69.11;100223.16;10292290;28;20228;-85
2022/05/20 15:45:05;;;;;;;2.95;2.72;;;;;;;18.56;69.82;100220.66;10307328;28;20209;-84
2022/05/20 15:50:09;;;;;;;4.45;3.03;;;;;;;19.02;67.94;100196.19;10309012;28;20260;-84
2022/05/20 15:55:27;;;;;;;4.00;2.53;;;;;;;18.66;69.89;100217.09;10276513;28;20213;-83
2022/05/20 16:00:29;;;;;;;4.25;2.92;;;;;;;18.57;70.20;100213.75;10306328;28;20241;-84
2022/05/20 16:05:32;;;;;;;2.88;2.45;;;;;;;18.54;71.27;100197.41;10318758;28;20197;-86
2022/05/20 16:10:37;;;;;;;4.40;3.50;;;;;;;19.08;70.75;100198.69;10296238;28;20209;-84
2022/05/20 16:15:40;;;;;;;5.10;3.70;;;;;;;18.77;70.93;100220.84;10304148;28;20207;-92
2022/05/20 16:20:44;;;;;;;4.55;2.88;;;;;;;17.71;75.05;100231.06;10297099;28;20270;-85
2022/05/20 16:25:48;;;;;;;3.75;1.80;;;;;;;17.67;73.92;100230.22;10297324;28;20202;-85
2022/05/20 16:30:51;;;;;;;2.45;1.58;;;;;;;17.69;72.86;100194.41;10315181;28;20190;-87
2022/05/20 16:35:53;;;;;;;6.47;2.15;;;;;;;17.92;72.49;100205.69;10283543;28;20197;-87
2022/05/20 16:40:57;;;;;;;3.58;1.63;;;;;;;17.49;73.04;100215.66;10317151;28;20294;-85
2022/05/20 16:45:59;;;;;;;1.63;1.52;;;;;;;17.02;74.68;100204.81;10303234;28;20214;-87
2022/05/20 16:51:04;;;;;;;1.40;1.30;;;;;;;16.95;73.99;100199.00;10298489;28;20210;-89
2022/05/20 17:01:46;;;;;;;3.25;1.20;;;;;;;17.02;72.98;100207.66;10315378;28;20221;-89
2022/05/20 17:06:51;;;;;;;2.35;1.75;;;;;;;16.36;74.70;100198.38;10330284;28;20225;-84
2022/05/20 17:11:57;;;;;;;2.00;1.70;;;;;;;17.38;73.08;100221.22;10333073;28;20292;-85
2022/05/20 17:16:59;;;;;;;4.10;1.90;;;;;;;16.95;72.77;100225.44;10329932;28;20675;-86
2022/05/20 17:27:25;;;;;;;2.90;2.33;;;;;;;16.99;71.46;100245.44;10337759;28;20201;-88
2022/05/20 17:32:28;;;;;;;5.88;3.10;;;;;;;17.39;70.55;100262.75;10362049;28;20699;-90
2022/05/20 17:37:31;;;;;;;4.55;4.15;;;;;;;16.71;72.25;100260.78;10333963;28;20595;-88
2022/05/20 17:42:33;;;;;;;5.93;5.13;;;;;;;17.45;70.83;100272.59;10320384;28;20248;-86
2022/05/20 17:47:44;;;;;;;5.93;4.78;;;;;;;16.71;71.77;100277.88;10320450;28;20304;-85
2022/05/20 17:52:46;;;;;;;6.28;5.68;;;;;;;16.95;70.11;100290.09;10337438;28;20653;-85
2022/05/20 17:57:48;;;;;;;10.45;7.15;;;;;;;16.68;68.48;100292.03;10304940;28;20253;-85
2022/05/20 18:02:52;;;;;;;7.45;6.68;;;;;;;17.12;63.96;100320.91;10301735;28;20256;-84
2022/05/20 18:07:55;;;;;;;11.27;10.15;;;;;;;15.87;65.97;100331.81;10313873;28;20252;-86
2022/05/20 18:12:57;;;;;;;11.97;10.77;;;;;;;15.82;64.32;100354.81;10328948;28;20189;-84
2022/05/20 18:17:59;;;;;;;10.50;9.35;;;;;;;15.95;61.82;100381.94;10291453;28;20245;-85
2022/05/20 18:23:03;;;;;;;12.77;11.55;;;;;;;15.64;63.71;100377.13;10277002;28;20342;-84
2022/05/20 18:28:06;;;;;;;11.35;10.45;;;;;;;15.56;62.30;100385.84;10293741;28;20221;-85
2022/05/20 18:33:08;;;;;;;11.27;10.17;;;;;;;15.65;61.71;100406.38;10296124;28;20284;-85
2022/05/20 18:43:31;;;;;;;15.00;13.47;;;;;;;15.54;62.22;100416.66;10316441;28;20228;-84
2022/05/20 18:48:34;;;;;;;13.63;12.47;;;;;;;15.52;61.15;100432.03;10314332;28;20198;-83
2022/05/20 18:53:36;;;;;;;13.98;12.70;;;;;;;15.19;61.99;100451.41;10330323;28;20229;-86
2022/05/20 18:58:39;;;;;;;13.70;12.40;;;;;;;15.47;61.51;100468.41;10326868;28;20308;-85
2022/05/20 19:03:44;;;;;;;12.88;11.75;;;;;;;14.91;63.21;100501.72;10327597;28;20229;-82
2022/05/20 19:08:49;;;;;;;12.15;11.00;;;;;;;14.73;63.81;100519.00;10307241;28;20279;-86
2022/05/20 19:13:51;;;;;;;13.67;12.37;;;;;;;14.54;65.04;100527.34;10287594;28;20685;-83
2022/05/20 19:18:54;;;;;;;13.93;12.68;;;;;;;14.26;65.88;100535.78;10290432;28;20315;-84
2022/05/20 19:23:58;;;;;;;12.02;10.68;;;;;;;14.13;65.79;100553.97;10301889;28;20260;-84
2022/05/20 19:29:00;;;;;;;11.47;10.07;;;;;;;14.03;66.78;100569.44;10307653;28;20544;-85
2022/05/20 19:34:02;;;;;;;11.97;10.40;;;;;;;13.96;65.67;100569.16;10290217;28;20269;-87
2022/05/20 19:39:05;;;;;;;9.27;8.17;;;;;;;13.96;63.85;100568.34;10316941;28;20300;-85
2022/05/20 19:44:12;;;;;;;9.87;6.70;;;;;;;13.92;63.30;100573.91;10303671;28;20601;-85
2022/05/20 19:49:14;;;;;;;6.20;5.60;;;;;;;14.07;61.54;100590.22;10331114;28;20194;-87
2022/05/20 19:54:18;;;;;;;8.30;7.50;;;;;;;14.53;60.32;100588.09;10278120;28;20563;-86
2022/05/20 20:05:02;;;;;;;13.63;12.23;;;;;;;14.28;62.43;100626.97;10303372;28;20263;-83
2022/05/20 20:10:05;;;;;;;21.45;19.25;;;;;;;13.57;63.36;100641.44;10312265;28;20206;-87
2022/05/20 20:15:07;;;;;;;23.15;20.67;;;;;;;14.48;60.77;100641.38;10318100;28;20210;-84
2022/05/20 20:20:09;;;;;;;20.07;18.07;;;;;;;13.96;60.84;100653.34;10330300;28;20260;-85
2022/05/20 20:30:33;;;;;;;17.20;15.55;;;;;;;14.68;58.23;100649.78;10353961;28;20216;-86
2022/05/20 20:35:35;;;;;;;20.57;18.53;;;;;;;14.49;59.41;100658.03;10314893;28;20226;-84
2022/05/20 20:40:37;;;;;;;20.87;18.77;;;;;;;14.31;58.49;100659.47;10312102;28;20565;-86
2022/05/20 20:45:39;;;;;;;19.73;17.83;;;;;;;14.36;59.92;100659.22;10325216;28;20590;-86
2022/05/20 20:50:44;;;;;;;14.77;13.27;;;;;;;14.06;60.31;100681.28;10308759;28;20846;-85
2022/05/20 20:55:48;;;;;;;13.87;11.93;;;;;;;14.63;58.69;100684.06;10302522;28;20194;-86
2022/05/20 21:00:51;;;;;;;10.93;9.97;;;;;;;13.68;59.66;100692.84;10303343;28;20701;-86
2022/05/20 21:05:53;;;;;;;11.73;10.32;;;;;;;13.79;58.82;100705.38;10286125;28;20582;-86
2022/05/20 21:10:56;;;;;;;10.40;9.40;;;;;;;13.20;59.88;100721.72;10317022;28;20295;-86
2022/05/20 21:15:58;;;;;;;11.87;8.73;;;;;;;13.56;59.06;100741.72;10334378;28;20217;-86
2022/05/20 21:21:00;;;;;;;8.57;6.60;;;;;;;13.69;57.04;100748.28;10321301;28;20222;-85
2022/05/20 21:26:02;;;;;;;6.93;5.77;;;;;;;12.96;59.24;100767.63;10317904;28;20535;-85
2022/05/20 21:31:05;;;;;;;5.47;3.57;;;;;;;12.81;57.49;100768.19;10301814;28;20483;-86
2022/05/20 21:36:07;;;;;;;5.40;2.60;;;;;;;12.97;56.22;100781.44;10300663;28;20252;-85
2022/05/20 21:41:09;;;;;;;3.93;2.10;;;;;;;13.06;55.05;100789.84;10321905;28;20221;-85
2022/05/20 21:51:33;;;;;;;3.27;1.20;;;;;;;13.18;53.47;100823.09;10302692;28;20244;-86
2022/05/20 21:56:35;;;;;;;3.20;1.40;;;;;;;13.11;53.48;100812.31;10328325;28;20245;-85
2022/05/20 22:12:31;;;;;;;9.27;4.70;;;;;;;13.22;54.44;100838.25;10318778;28;20250;-85
2022/05/20 22:17:33;;;;;;;8.10;4.87;;;;;;;13.70;52.98;100844.25;10282847;28;20222;-87
2022/05/20 22:22:36;;;;;;;4.17;3.77;;;;;;;12.96;54.87;100863.81;10314921;28;20229;-86
2022/05/20 22:27:39;;;;;;;4.40;2.63;;;;;;;12.66;54.53;100880.72;10283348;28;20198;-86
2022/05/20 22:32:41;;;;;;;6.73;2.50;;;;;;;12.35;54.07;100882.94;10313418;28;20635;-86
2022/05/20 22:37:43;;;;;;;2.20;2.00;;;;;;;12.88;52.03;100882.50;10323229;28;20233;-85
2022/05/20 22:42:46;;;;;;;3.80;1.90;;;;;;;12.38;52.44;100893.59;10298463;28;20285;-85
2022/05/20 22:47:48;;;;;;;4.23;2.50;;;;;;;12.74;51.97;100889.53;10332052;28;20222;-86
2022/05/20 22:52:50;;;;;;;2.30;1.40;;;;;;;13.32;48.26;100886.81;10313711;28;20197;-87
2022/05/20 22:57:53;;;;;;;2.50;1.87;;;;;;;13.13;49.96;100886.41;10297871;28;20206;-86
2022/05/20 23:02:55;;;;;;;3.33;2.20;;;;;;;12.69;52.78;100897.03;10314493;28;20241;-85
2022/05/20 23:07:57;;;;;;;3.00;2.17;;;;;;;12.97;52.13;100893.78;10314231;28;20575;-86
2022/05/20 23:13:00;;;;;;;5.53;2.20;;;;;;;12.42;54.02;100891.75;10314116;28;20182;-85
2022/05/20 23:18:05;;;;;;;7.40;3.23;;;;;;;12.64;53.72;100888.69;10296926;28;20229;-85
2022/05/20 23:23:07;;;;;;;4.07;3.50;;;;;;;12.55;53.96;100887.91;10298280;28;20484;-86
2022/05/20 23:28:10;;;;;;;4.50;3.43;;;;;;;12.53;54.34;100901.53;10296720;28;20194;-87
2022/05/20 23:33:15;;;;;;;6.10;4.00;;;;;;;12.38;54.74;100909.72;10312355;28;20281;-85
2022/05/20 23:38:18;;;;;;;6.60;4.10;;;;;;;12.87;53.68;100913.97;10313764;28;20186;-86
2022/05/20 23:43:21;;;;;;;6.40;3.40;;;;;;;12.87;53.18;100909.13;10280394;28;20225;-86
2022/05/20 23:48:23;;;;;;;4.80;4.13;;;;;;;12.47;54.05;100908.53;10296420;28;20260;-86
2022/05/20 23:53:25;;;;;;;5.13;3.53;;;;;;;13.02;53.37;100907.75;10296531;28;20529;-86
2022/05/20 23:58:27;;;;;;;7.77;3.97;;;;;;;12.63;55.26;100917.34;10283790;28;20198;-86
